createdAt,value
2018-10-12T00:02:04.409Z,59.10
2018-10-12T00:06:55.323Z,59.10
2018-10-12T00:11:46.280Z,59.40
2018-10-12T00:16:37.911Z,59.30
2018-10-12T00:21:28.819Z,59.30
2018-10-12T00:26:20.462Z,59.20
2018-10-12T00:31:11.421Z,59.10
2018-10-12T00:36:02.333Z,58.80
2018-10-12T00:40:53.324Z,58.90
2018-10-12T00:45:45.015Z,58.80
2018-10-12T00:50:36.649Z,58.70
2018-10-12T00:55:27.661Z,58.60
2018-10-12T01:00:19.296Z,59.30
2018-10-12T01:05:10.209Z,58.70
2018-10-12T01:10:01.124Z,58.60
2018-10-12T01:14:52.015Z,58.60
2018-10-12T01:19:42.916Z,58.40
2018-10-12T01:24:33.818Z,58.40
2018-10-12T01:29:25.457Z,58.40
2018-10-12T01:34:16.386Z,58.40
2018-10-12T01:39:07.296Z,58.60
2018-10-12T01:43:58.234Z,58.80
2018-10-12T01:48:49.132Z,59.40
2018-10-12T01:53:40.051Z,59.50
2018-10-12T01:58:31.683Z,58.90
2018-10-12T02:03:22.571Z,58.90
2018-10-12T02:08:13.498Z,59.50
2018-10-12T02:13:11.290Z,59.50
2018-10-12T02:18:02.176Z,59.40
2018-10-12T02:22:53.808Z,59.30
2018-10-12T02:27:44.734Z,59.20
2018-10-12T02:32:36.381Z,60.10
2018-10-12T02:37:27.293Z,60.10
2018-10-12T02:42:18.948Z,60.50
2018-10-12T02:47:09.894Z,60.50
2018-10-12T02:52:00.768Z,60.30
2018-10-12T02:56:52.283Z,60.10
2018-10-12T03:01:43.908Z,60.60
2018-10-12T03:06:34.885Z,60.50
2018-10-12T03:11:25.796Z,60.30
2018-10-12T03:16:16.792Z,60.40
2018-10-12T03:21:07.709Z,60.30
2018-10-12T03:25:58.665Z,60.10
2018-10-12T03:30:49.542Z,60.10
2018-10-12T03:35:40.444Z,60.60
2018-10-12T03:40:32.854Z,60.00
2018-10-12T03:45:23.844Z,59.90
2018-10-12T03:50:15.460Z,60.10
2018-10-12T03:55:06.369Z,60.10
2018-10-12T03:59:57.291Z,60.10
2018-10-12T04:04:48.932Z,60.00
2018-10-12T04:09:39.831Z,60.00
2018-10-12T04:14:30.762Z,60.20
2018-10-12T04:19:21.702Z,60.30
2018-10-12T04:24:13.349Z,59.90
2018-10-12T04:29:04.243Z,59.90
2018-10-12T04:33:55.141Z,59.90
2018-10-12T04:38:46.856Z,60.50
2018-10-12T04:43:38.484Z,60.30
2018-10-12T04:48:30.138Z,60.00
2018-10-12T04:53:21.866Z,59.80
2018-10-12T04:58:12.790Z,59.80
2018-10-12T05:03:03.684Z,59.70
2018-10-12T05:07:54.571Z,59.70
2018-10-12T05:12:45.501Z,60.10
2018-10-12T05:17:36.474Z,60.10
2018-10-12T05:22:27.421Z,60.30
2018-10-12T05:27:18.409Z,60.50
2018-10-12T05:32:09.321Z,60.20
2018-10-12T05:37:00.239Z,60.00
2018-10-12T05:41:51.245Z,59.90
2018-10-12T05:46:42.159Z,59.80
2018-10-12T05:51:33.817Z,60.40
2018-10-12T05:56:24.712Z,59.80
2018-10-12T06:01:15.655Z,59.70
2018-10-12T06:06:06.573Z,59.60
2018-10-12T06:10:58.227Z,59.70
2018-10-12T06:15:49.260Z,59.60
2018-10-12T06:20:40.123Z,59.60
2018-10-12T06:25:31.783Z,59.70
2018-10-12T06:30:22.812Z,59.70
2018-10-12T06:35:13.724Z,59.70
2018-10-12T06:40:04.685Z,60.00
2018-10-12T06:44:55.611Z,59.90
2018-10-12T06:49:46.713Z,60.10
2018-10-12T06:54:37.605Z,60.40
2018-10-12T06:59:28.495Z,60.60
2018-10-12T07:04:20.137Z,61.00
2018-10-12T07:09:11.043Z,61.00
2018-10-12T07:14:01.950Z,61.40
2018-10-12T07:18:52.856Z,61.50
2018-10-12T07:23:43.754Z,61.30
2018-10-12T07:28:34.675Z,61.60
2018-10-12T07:33:25.585Z,62.50
2018-10-12T07:38:16.990Z,62.20
2018-10-12T07:43:08.263Z,62.40
2018-10-12T07:47:59.191Z,62.40
2018-10-12T07:52:50.088Z,62.60
2018-10-12T07:57:40.994Z,62.80
2018-10-12T08:02:32.637Z,63.50
2018-10-12T08:07:23.658Z,63.40
2018-10-12T08:12:15.287Z,63.50
2018-10-12T08:17:06.207Z,63.50
2018-10-12T08:21:57.862Z,63.50
2018-10-12T08:26:48.778Z,63.50
2018-10-12T08:31:39.685Z,63.50
2018-10-12T08:36:30.687Z,63.30
2018-10-12T08:41:21.544Z,63.20
2018-10-12T08:46:12.453Z,62.80
2018-10-12T08:51:03.379Z,62.80
2018-10-12T08:55:54.297Z,62.60
2018-10-12T09:00:45.323Z,62.30
2018-10-12T09:05:36.229Z,62.40
2018-10-12T09:10:27.866Z,62.20
2018-10-12T09:15:18.764Z,62.20
2018-10-12T09:20:09.675Z,62.10
2018-10-12T09:25:00.569Z,61.90
2018-10-12T09:29:52.325Z,61.80
2018-10-12T09:34:43.959Z,61.60
2018-10-12T09:39:34.890Z,61.60
2018-10-12T09:44:25.779Z,61.40
2018-10-12T09:49:16.836Z,61.30
2018-10-12T09:54:07.662Z,61.30
2018-10-12T09:58:58.560Z,61.20
2018-10-12T10:03:49.496Z,61.20
2018-10-12T10:08:40.490Z,61.50
2018-10-12T10:13:31.340Z,61.40
2018-10-12T10:18:22.773Z,61.30
2018-10-12T10:23:13.184Z,61.50
2018-10-12T10:28:04.082Z,61.10
2018-10-12T10:32:55.004Z,60.80
2018-10-12T10:37:46.653Z,60.30
2018-10-12T10:42:37.560Z,60.30
2018-10-12T10:47:29.188Z,60.50
2018-10-12T10:52:20.092Z,60.50
2018-10-12T10:57:10.981Z,60.50
2018-10-12T11:02:01.881Z,60.50
2018-10-12T11:06:53.533Z,60.40
2018-10-12T11:11:44.423Z,60.30
2018-10-12T11:16:35.312Z,60.00
2018-10-12T11:21:26.969Z,59.10
2018-10-12T11:26:17.977Z,59.00
2018-10-12T11:31:08.871Z,58.80
2018-10-12T11:35:59.903Z,57.90
2018-10-12T11:40:50.801Z,57.30
2018-10-12T11:45:42.435Z,56.50
2018-10-12T11:50:33.352Z,56.50
2018-10-12T11:55:24.307Z,56.50
2018-10-12T12:00:22.184Z,56.60
2018-10-12T12:05:13.149Z,56.50
2018-10-12T12:10:04.060Z,55.80
2018-10-12T12:14:54.963Z,55.70
2018-10-12T12:19:45.881Z,55.00
2018-10-12T12:24:37.532Z,55.00
2018-10-12T12:29:28.441Z,55.00
2018-10-12T12:34:20.096Z,54.80
2018-10-12T12:39:11.026Z,54.80
2018-10-12T12:44:01.963Z,54.50
2018-10-12T12:48:54.035Z,54.20
2018-10-12T12:53:44.585Z,54.10
2018-10-12T12:58:35.493Z,53.90
2018-10-12T13:03:27.182Z,53.80
2018-10-12T13:08:18.072Z,53.80
2018-10-12T13:13:09.752Z,54.60
2018-10-12T13:18:00.680Z,54.00
2018-10-12T13:22:51.825Z,54.10
2018-10-12T13:27:42.723Z,53.50
2018-10-12T13:32:33.631Z,53.40
2018-10-12T13:37:24.538Z,54.00
2018-10-12T13:42:16.235Z,53.90
2018-10-12T13:47:07.867Z,53.50
2018-10-12T13:51:58.813Z,53.50
2018-10-12T13:56:49.730Z,53.80
2018-10-12T14:01:40.648Z,52.60
2018-10-12T14:06:32.291Z,53.00
2018-10-12T14:11:23.195Z,52.90
2018-10-12T14:16:14.846Z,52.60
2018-10-12T14:21:05.731Z,52.60
2018-10-12T14:25:56.667Z,53.10
2018-10-12T14:30:47.598Z,52.50
2018-10-12T14:35:39.299Z,52.20
2018-10-12T14:40:30.966Z,51.90
2018-10-12T14:45:23.346Z,52.40
2018-10-12T14:50:14.238Z,52.40
2018-10-12T14:55:05.180Z,52.20
2018-10-12T14:59:56.094Z,51.30
2018-10-12T15:04:47.733Z,51.80
2018-10-12T15:09:38.690Z,51.80
2018-10-12T15:14:29.572Z,52.90
2018-10-12T15:19:20.489Z,53.00
2018-10-12T15:24:11.384Z,52.70
2018-10-12T15:29:02.298Z,53.00
2018-10-12T15:33:53.195Z,52.80
2018-10-12T15:38:44.183Z,53.30
2018-10-12T15:43:35.019Z,53.60
2018-10-12T15:48:25.925Z,53.70
2018-10-12T15:53:16.936Z,54.40
2018-10-12T15:58:07.850Z,54.60
2018-10-12T16:02:58.731Z,54.90
2018-10-12T16:07:49.644Z,54.90
2018-10-12T16:12:41.276Z,55.50
2018-10-12T16:17:32.216Z,55.40
2018-10-12T16:22:23.931Z,55.50
2018-10-12T16:27:15.594Z,55.40
2018-10-12T16:32:06.516Z,55.30
2018-10-12T16:36:57.408Z,55.50
2018-10-12T16:41:48.314Z,55.50
2018-10-12T16:46:39.992Z,55.80
2018-10-12T16:51:31.628Z,55.80
2018-10-12T16:56:22.546Z,55.60
2018-10-12T17:01:14.195Z,55.90
2018-10-12T17:06:05.107Z,55.80
2018-10-12T17:10:56.134Z,55.80
2018-10-12T17:15:47.107Z,55.90
2018-10-12T17:20:38.064Z,55.80
2018-10-12T17:25:29.040Z,55.90
2018-10-12T17:30:20.012Z,55.90
2018-10-12T17:35:11.669Z,56.10
2018-10-12T17:40:02.722Z,56.10
2018-10-12T17:44:53.616Z,56.70
2018-10-12T17:49:45.260Z,56.30
2018-10-12T17:54:36.287Z,56.10
2018-10-12T17:59:28.017Z,56.20
2018-10-12T18:04:18.964Z,56.20
2018-10-12T18:09:10.042Z,56.40
2018-10-12T18:14:00.993Z,56.40
2018-10-12T18:18:51.928Z,56.40
2018-10-12T18:23:42.944Z,56.50
2018-10-12T18:28:34.699Z,56.40
2018-10-12T18:33:25.607Z,56.30
2018-10-12T18:38:17.292Z,56.50
2018-10-12T18:43:09.033Z,56.60
2018-10-12T18:48:00.090Z,56.50
2018-10-12T18:52:50.977Z,56.60
2018-10-12T18:57:41.895Z,56.80
2018-10-12T19:02:32.913Z,57.00
2018-10-12T19:07:23.888Z,57.10
2018-10-12T19:12:14.839Z,57.00
2018-10-12T19:17:06.935Z,57.20
2018-10-12T19:21:57.912Z,57.20
2018-10-12T19:26:48.867Z,57.30
2018-10-12T19:31:40.573Z,57.40
2018-10-12T19:36:31.951Z,57.40
2018-10-12T19:41:22.857Z,57.40
2018-10-12T19:46:13.897Z,57.50
2018-10-12T19:51:04.831Z,57.50
2018-10-12T19:55:55.825Z,57.50
2018-10-12T20:00:46.813Z,57.60
2018-10-12T20:05:37.737Z,57.60
2018-10-12T20:10:29.468Z,57.70
2018-10-12T20:15:20.306Z,57.70
2018-10-12T20:20:11.254Z,57.80
2018-10-12T20:25:02.137Z,58.00
2018-10-12T20:29:53.036Z,57.90
2018-10-12T20:34:43.997Z,58.00
2018-10-12T20:39:34.891Z,58.00
2018-10-12T20:44:25.921Z,58.00
2018-10-12T20:49:16.868Z,58.10
2018-10-12T20:54:07.867Z,58.10
2018-10-12T20:58:58.771Z,58.00
2018-10-12T21:03:51.244Z,58.20
2018-10-12T21:08:42.856Z,58.20
2018-10-12T21:13:33.769Z,58.20
2018-10-12T21:18:24.703Z,58.20
2018-10-12T21:23:15.712Z,58.20
2018-10-12T21:28:06.729Z,58.20
2018-10-12T21:32:57.657Z,58.10
2018-10-12T21:37:48.651Z,58.20
2018-10-12T21:42:39.550Z,58.30
2018-10-12T21:47:30.443Z,58.30
2018-10-12T21:52:22.106Z,58.30
2018-10-12T21:57:13.058Z,58.30
2018-10-12T22:02:03.981Z,58.30
2018-10-12T22:06:54.890Z,58.30
2018-10-12T22:11:46.534Z,58.40
2018-10-12T22:16:37.451Z,58.40
2018-10-12T22:21:29.085Z,58.40
2018-10-12T22:26:20.000Z,58.40
2018-10-12T22:31:11.649Z,58.40
2018-10-12T22:36:02.566Z,58.40
2018-10-12T22:40:54.218Z,58.50
2018-10-12T22:45:45.135Z,58.40
2018-10-12T22:50:36.046Z,58.30
2018-10-12T22:55:26.937Z,58.40
2018-10-12T23:00:18.602Z,58.50
2018-10-12T23:05:09.518Z,58.50
2018-10-12T23:10:00.473Z,58.30
2018-10-12T23:14:52.200Z,58.50
2018-10-12T23:19:43.125Z,58.40
2018-10-12T23:24:34.794Z,58.50
2018-10-12T23:29:25.703Z,58.40
2018-10-12T23:34:17.446Z,58.40
2018-10-12T23:39:08.402Z,58.40
2018-10-12T23:43:59.308Z,59.10
2018-10-12T23:48:50.209Z,58.60
2018-10-12T23:53:41.126Z,58.50
2018-10-12T23:58:32.068Z,58.50
